Terminal Aerodrome Forecast
Issued by NWS

Home | Current Version | Previous Version | Text Only | Print | Product List | Glossary On
Versions: 1 2 3 4 5 6 7 8 9 10 11 12 13 14 15 16 17 18 19 20 21 22 23 24 25 26 27 28 29 30 31 32 33 34 35 36 37 38 39 40 41 42 43
000
FTUS45 KBOU 120059 AAA
TAFAPA
TAF AMD
KAPA 120059Z 1201/1224 17008KT P6SM VCSH SCT100 BKN120
     FM120200 32006KT P6SM SCT080 BKN140
     FM120800 30009KT P6SM VCFG FEW020 SCT070 BKN100
     FM121500 02010KT P6SM BKN070 BKN140
      TEMPO 1220/1224 VRB15G30KT 5SM TSRA BKN060CB=

USA.gov is the U.S. government's official web portal to all federal, state and local government web resources and services.